CST,Max TemperatureF,Mean TemperatureF,Min TemperatureF,Max Dew PointF,MeanDew PointF,Min DewpointF,Max Humidity, Mean Humidity, Min Humidity, Max Sea Level PressureIn, Mean Sea Level PressureIn, Min Sea Level PressureIn, Max VisibilityMiles, Mean VisibilityMiles, Min VisibilityMiles, Max Wind SpeedMPH, Mean Wind SpeedMPH, Max Gust SpeedMPH,PrecipitationIn, CloudCover, Events, WindDirDegrees
2014-2-1,67,54,40,49,39,24,77,60,42,30.09,30.02,29.96,10,10,10,15,9,21,0.00,5,,196
2014-2-2,60,48,36,56,43,34,96,90,83,30.08,30.00,29.93,10,6,2,23,13,29,1.27,8,Rain-Snow,28
2014-2-3,37,35,32,34,31,28,92,87,82,30.28,30.21,30.04,10,8,5,22,12,29,0.06,8,Snow,32
2014-2-4,48,41,34,47,37,31,100,91,82,30.19,29.95,29.81,10,5,0,15,6,21,1.48,8,Fog-Rain-Thunderstorm,56
2014-2-5,41,35,28,37,28,19,96,80,63,30.47,30.24,29.94,10,10,10,20,10,23,0.00,8,,344
2014-2-6,30,27,24,21,20,19,81,72,63,30.50,30.44,30.40,10,10,9,18,11,22,T,7,,33
2014-2-7,32,28,24,22,20,18,81,70,59,30.46,30.39,30.29,10,10,7,14,7,17,T,8,Snow,36
2014-2-8,43,37,30,35,30,22,85,76,67,30.31,30.22,30.14,10,10,7,7,1,8,0.02,7,,45
2014-2-9,48,42,35,38,35,32,92,81,70,30.18,30.15,30.12,10,9,6,15,5,17,0.01,8,,21
2014-2-10,37,34,31,34,27,18,100,74,47,30.27,30.23,30.16,10,7,2,21,13,25,T,7,,36
2014-2-11,37,31,25,22,20,17,88,68,48,30.35,30.26,30.18,10,8,2,21,11,24,0.01,8,Snow,39
2014-2-12,37,34,31,34,31,25,92,77,61,30.16,30.04,29.94,10,5,1,15,8,17,0.23,8,Rain-Snow,38
2014-2-13,54,40,26,30,25,22,92,62,32,30.03,29.96,29.91,10,8,4,14,4,18,0.00,0,,288
2014-2-14,53,42,30,46,37,27,89,74,59,30.00,29.84,29.73,10,9,1,23,8,38,0.38,5,Rain,299
2014-2-15,48,38,28,27,23,19,78,58,38,30.25,30.14,30.04,10,10,10,20,6,24,0.00,2,,20
2014-2-16,65,46,27,35,30,24,92,58,24,30.17,30.12,30.08,10,10,10,10,4,17,0.00,0,,323
2014-2-17,66,52,37,56,46,31,96,78,60,30.14,30.08,29.95,10,7,0,8,6,9,0.04,4,Fog,231
2014-2-18,70,52,33,59,46,33,100,72,44,30.19,30.09,29.96,10,5,0,18,8,23,0.00,4,Fog,173
2014-2-19,69,63,57,59,57,55,93,80,66,30.05,29.98,29.90,10,10,7,12,6,16,0.00,6,,227
2014-2-20,77,62,47,61,56,36,93,70,46,29.99,29.84,29.71,10,9,1,32,15,47,0.50,7,Rain,217
2014-2-21,61,49,36,36,28,18,85,52,19,30.13,30.08,29.99,10,10,10,14,4,20,0.01,0,,290
2014-2-22,64,49,33,35,32,29,89,59,29,30.15,30.07,30.00,10,10,10,18,7,23,0.00,2,,203
2014-2-23,72,56,39,46,39,34,85,60,34,30.12,30.02,29.94,10,10,10,20,6,24,0.00,2,,3
2014-2-24,58,46,34,37,29,24,82,56,30,30.27,30.18,30.09,10,10,10,24,9,29,0.00,2,,49
2014-2-25,57,48,38,39,34,28,92,68,43,30.16,30.10,30.04,10,10,7,26,7,29,0.22,6,Rain,40
2014-2-26,41,33,25,32,16,6,82,56,29,30.18,30.11,30.05,10,10,10,25,13,30,0.02,3,,22
2014-2-27,51,35,19,21,15,10,77,49,20,30.14,30.08,30.02,10,10,10,9,3,,0.00,0,,359
2014-2-28,56,40,24,40,26,17,89,57,24,30.14,30.07,30.00,10,10,10,16,6,24,0.09,4,Rain,162